createdAt,value
2022-12-08T00:04:05.229Z,15.04
2022-12-08T00:09:25.107Z,14.94
2022-12-08T00:14:30.563Z,14.84
2022-12-08T00:19:33.566Z,14.81
2022-12-08T00:24:38.460Z,14.69
2022-12-08T00:29:44.263Z,14.58
2022-12-08T00:34:47.003Z,14.58
2022-12-08T00:39:49.746Z,14.48
2022-12-08T00:44:54.525Z,14.34
2022-12-08T00:49:57.274Z,14.31
2022-12-08T00:54:59.968Z,14.28
2022-12-08T01:00:05.148Z,14.24
2022-12-08T01:05:08.959Z,14.14
2022-12-08T01:10:11.708Z,14.11
2022-12-08T01:15:15.700Z,14.06
2022-12-08T01:20:18.769Z,13.99
2022-12-08T01:25:21.540Z,13.92
2022-12-08T01:30:25.700Z,13.94
2022-12-08T01:35:28.530Z,13.85
2022-12-08T01:40:31.303Z,13.83
2022-12-08T01:45:35.418Z,13.76
2022-12-08T01:50:39.615Z,13.72
2022-12-08T01:55:45.838Z,13.67
2022-12-08T02:00:50.699Z,13.62
2022-12-08T02:05:53.791Z,13.62
2022-12-08T02:10:56.486Z,13.58
2022-12-08T02:16:05.498Z,13.48
2022-12-08T02:21:11.261Z,13.48
2022-12-08T02:26:51.001Z,13.41
2022-12-08T02:32:06.330Z,13.34
2022-12-08T02:37:17.150Z,13.33
2022-12-08T02:42:26.201Z,13.33
2022-12-08T02:47:29.540Z,13.28
2022-12-08T02:52:46.783Z,13.23
2022-12-08T02:58:01.436Z,13.23
2022-12-08T03:03:09.788Z,13.14
2022-12-08T03:08:16.451Z,13.13
2022-12-08T03:13:22.509Z,13.07
2022-12-08T03:18:29.846Z,13.04
2022-12-08T03:23:34.334Z,13.01
2022-12-08T03:28:37.029Z,12.99
2022-12-08T03:33:42.290Z,12.94
2022-12-08T03:38:47.652Z,12.95
2022-12-08T03:43:52.056Z,12.89
2022-12-08T03:48:54.855Z,12.87
2022-12-08T03:53:58.968Z,12.85
2022-12-08T03:59:01.994Z,12.83
2022-12-08T04:04:04.811Z,12.80
2022-12-08T04:09:08.951Z,12.77
2022-12-08T04:14:11.634Z,12.68
2022-12-08T04:19:14.943Z,12.69
2022-12-08T04:24:19.345Z,12.68
2022-12-08T04:29:22.105Z,12.66
2022-12-08T04:34:25.005Z,12.64
2022-12-08T04:39:29.075Z,12.61
2022-12-08T04:44:31.801Z,12.62
2022-12-08T04:49:34.581Z,12.56
2022-12-08T04:54:38.727Z,12.56
2022-12-08T04:59:41.478Z,12.50
2022-12-08T05:04:44.215Z,12.52
2022-12-08T05:09:48.436Z,12.47
2022-12-08T05:14:51.195Z,12.46
2022-12-08T05:19:54.122Z,12.43
2022-12-08T05:24:58.160Z,12.41
2022-12-08T05:30:01.133Z,12.38
2022-12-08T05:35:04.021Z,12.38
2022-12-08T05:40:09.884Z,12.33
2022-12-08T05:45:12.595Z,12.32
2022-12-08T05:50:15.287Z,12.31
2022-12-08T05:55:19.432Z,12.29
2022-12-08T06:00:22.888Z,12.29
2022-12-08T06:05:25.682Z,12.25
2022-12-08T06:10:29.879Z,12.22
2022-12-08T06:15:32.667Z,12.22
2022-12-08T06:20:35.613Z,12.19
2022-12-08T06:25:39.650Z,12.21
2022-12-08T06:30:42.301Z,12.15
2022-12-08T06:35:44.970Z,12.15
2022-12-08T06:40:55.774Z,12.13
2022-12-08T06:45:58.571Z,12.12
2022-12-08T06:51:07.492Z,12.07
2022-12-08T06:56:12.515Z,12.06
2022-12-08T07:01:15.593Z,12.04
2022-12-08T07:06:21.681Z,12.03
2022-12-08T07:11:25.743Z,12.01
2022-12-08T07:16:28.457Z,11.98
2022-12-08T07:21:31.150Z,11.99
2022-12-08T07:26:35.207Z,11.95
2022-12-08T07:31:38.096Z,11.95
2022-12-08T07:36:40.922Z,11.94
2022-12-08T07:41:44.993Z,11.94
2022-12-08T07:46:47.695Z,11.92
2022-12-08T07:51:50.552Z,11.89
2022-12-08T07:56:54.613Z,11.87
2022-12-08T08:02:22.357Z,11.87
2022-12-08T08:07:20.056Z,12.21
2022-12-08T08:12:32.383Z,12.65
2022-12-08T08:17:36.084Z,13.01
2022-12-08T08:22:38.830Z,13.30
2022-12-08T08:27:43.424Z,13.52
2022-12-08T08:32:46.168Z,13.77
2022-12-08T08:37:49.617Z,14.00
2022-12-08T08:42:53.795Z,14.19
2022-12-08T08:47:56.520Z,14.30
2022-12-08T08:52:59.193Z,14.38
2022-12-08T08:58:03.267Z,14.45
2022-12-08T09:03:05.996Z,14.48
2022-12-08T09:08:08.781Z,14.54
2022-12-08T09:13:13.046Z,14.53
2022-12-08T09:18:15.794Z,14.72
2022-12-08T09:23:18.457Z,14.93
2022-12-08T09:28:22.477Z,15.07
2022-12-08T09:33:25.151Z,15.18
2022-12-08T09:38:27.799Z,15.26
2022-12-08T09:43:47.674Z,15.32
2022-12-08T09:48:55.622Z,15.37
2022-12-08T09:54:02.068Z,15.34
2022-12-08T09:59:11.844Z,15.33
2022-12-08T10:04:23.667Z,15.41
2022-12-08T10:09:32.066Z,15.47
2022-12-08T10:14:41.603Z,15.64
2022-12-08T10:19:45.478Z,15.65
2022-12-08T10:24:53.819Z,15.77
2022-12-08T10:29:57.904Z,15.81
2022-12-08T10:35:04.591Z,15.74
2022-12-08T10:40:11.716Z,15.78
2022-12-08T10:45:24.086Z,15.73
2022-12-08T10:50:34.454Z,15.70
2022-12-08T10:55:42.030Z,15.65
2022-12-08T11:00:46.204Z,15.56
2022-12-08T11:05:49.023Z,15.56
2022-12-08T11:10:51.701Z,15.50
2022-12-08T11:15:56.847Z,15.48
2022-12-08T11:21:03.955Z,15.35
2022-12-08T11:26:11.717Z,15.28
2022-12-08T11:31:24.032Z,15.14
2022-12-08T11:36:28.441Z,14.98
2022-12-08T11:41:33.203Z,14.99
2022-12-08T11:46:41.327Z,14.86
2022-12-08T11:51:47.936Z,14.81
2022-12-08T11:56:52.752Z,14.75
2022-12-08T12:01:58.053Z,14.61
2022-12-08T12:07:34.464Z,14.57
2022-12-08T12:12:48.948Z,14.46
2022-12-08T12:17:54.763Z,14.41
2022-12-08T12:22:59.772Z,14.40
2022-12-08T12:28:04.618Z,14.26
2022-12-08T12:33:13.406Z,14.21
2022-12-08T12:38:41.473Z,14.18
2022-12-08T12:44:23.945Z,14.13
2022-12-08T12:50:09.115Z,14.12
2022-12-08T12:55:29.923Z,14.07
2022-12-08T13:00:34.040Z,14.06
2022-12-08T13:05:49.092Z,13.97
2022-12-08T13:11:00.735Z,13.90
2022-12-08T13:16:17.179Z,13.87
2022-12-08T13:21:23.119Z,13.78
2022-12-08T13:26:27.003Z,13.77
2022-12-08T13:31:48.297Z,13.70
2022-12-08T13:37:18.828Z,13.62
2022-12-08T13:42:25.892Z,13.62
2022-12-08T13:47:34.796Z,13.55
2022-12-08T13:58:07.773Z,13.46
2022-12-08T14:03:14.103Z,13.41
2022-12-08T14:08:36.259Z,13.38
2022-12-08T14:13:43.766Z,13.33
2022-12-08T14:18:47.846Z,13.25
2022-12-08T14:23:50.563Z,13.22
2022-12-08T14:28:53.387Z,13.18
2022-12-08T14:33:57.798Z,13.12
2022-12-08T14:39:00.525Z,13.07
2022-12-08T14:44:03.272Z,13.06
2022-12-08T14:49:33.567Z,12.99
2022-12-08T14:54:36.536Z,12.96
2022-12-08T14:59:40.359Z,12.92
2022-12-08T15:04:46.476Z,12.94
2022-12-08T15:09:50.394Z,12.85
2022-12-08T15:14:57.255Z,12.82
2022-12-08T15:20:02.589Z,12.78
2022-12-08T15:25:09.619Z,12.75
2022-12-08T15:30:14.273Z,12.69
2022-12-08T15:35:18.275Z,12.67
2022-12-08T15:40:22.841Z,12.64
2022-12-08T15:45:28.817Z,12.57
2022-12-08T15:50:32.856Z,12.58
2022-12-08T15:55:38.699Z,12.52
2022-12-08T16:00:57.906Z,12.46
2022-12-08T16:06:50.824Z,12.42
2022-12-08T16:12:05.216Z,12.41
2022-12-08T16:17:05.550Z,12.36
2022-12-08T16:33:01.904Z,12.28
2022-12-08T16:38:06.181Z,12.26
2022-12-08T16:43:10.065Z,12.25
2022-12-08T16:48:15.333Z,12.23
2022-12-08T16:53:19.356Z,12.21
2022-12-08T16:58:22.016Z,12.19
2022-12-08T17:03:24.705Z,12.17
2022-12-08T17:08:28.785Z,12.16
2022-12-08T17:13:31.484Z,12.15
2022-12-08T17:18:34.221Z,12.13
2022-12-08T17:23:38.270Z,12.09
2022-12-08T17:29:00.045Z,12.09
2022-12-08T17:34:05.197Z,12.04
2022-12-08T17:39:14.854Z,12.05
2022-12-08T17:44:21.500Z,11.98
2022-12-08T17:49:26.352Z,12.00
2022-12-08T17:54:30.460Z,11.98
2022-12-08T17:59:33.835Z,11.95
2022-12-08T18:04:36.571Z,11.96
2022-12-08T18:09:40.636Z,11.93
2022-12-08T18:14:46.064Z,11.94
2022-12-08T18:19:48.759Z,11.93
2022-12-08T18:24:52.780Z,11.87
2022-12-08T18:29:55.520Z,11.87
2022-12-08T18:34:58.262Z,11.83
2022-12-08T18:40:02.536Z,11.81
2022-12-08T18:45:07.205Z,11.81
2022-12-08T18:50:10.991Z,11.79
2022-12-08T18:55:15.298Z,11.78
2022-12-08T19:00:19.881Z,11.76
2022-12-08T19:05:22.532Z,11.75
2022-12-08T19:10:26.757Z,11.72
2022-12-08T19:15:29.534Z,11.73
2022-12-08T19:20:32.255Z,11.69
2022-12-08T19:25:36.249Z,11.69
2022-12-08T19:30:39.004Z,11.67
2022-12-08T19:35:41.756Z,11.63
2022-12-08T19:41:03.298Z,11.61
2022-12-08T19:46:06.295Z,11.60
2022-12-08T19:51:09.372Z,11.57
2022-12-08T19:56:13.403Z,11.58
2022-12-08T20:01:17.480Z,11.54
2022-12-08T20:06:20.548Z,11.55
2022-12-08T20:11:24.610Z,11.52
2022-12-08T20:16:27.420Z,11.49
2022-12-08T20:21:30.301Z,11.49
2022-12-08T20:26:34.367Z,11.49
2022-12-08T20:31:37.210Z,11.44
2022-12-08T20:36:39.984Z,11.43
2022-12-08T20:41:44.882Z,11.41
2022-12-08T20:46:49.583Z,11.39
2022-12-08T20:51:52.699Z,11.37
2022-12-08T20:56:56.970Z,11.35
2022-12-08T21:02:00.379Z,11.33
2022-12-08T21:07:03.713Z,11.34
2022-12-08T21:12:08.201Z,11.31
2022-12-08T21:17:11.200Z,11.29
2022-12-08T21:22:14.079Z,11.27
2022-12-08T21:27:18.422Z,11.27
2022-12-08T21:32:24.492Z,11.26
2022-12-08T21:37:31.669Z,11.27
2022-12-08T21:42:44.718Z,11.24
2022-12-08T21:47:48.958Z,11.24
2022-12-08T21:52:51.922Z,11.33
2022-12-08T21:57:56.918Z,11.85
2022-12-08T22:02:59.895Z,12.24
2022-12-08T22:08:02.798Z,12.62
2022-12-08T22:13:07.255Z,12.90
2022-12-08T22:18:11.329Z,13.16
2022-12-08T22:23:14.470Z,13.50
2022-12-08T22:28:18.635Z,13.78
2022-12-08T22:33:21.561Z,13.99
2022-12-08T22:38:24.417Z,14.15
2022-12-08T22:43:29.555Z,14.36
2022-12-08T22:48:32.509Z,14.48
2022-12-08T22:53:35.450Z,14.55
2022-12-08T22:58:40.881Z,14.60
2022-12-08T23:03:43.780Z,14.60
2022-12-08T23:08:46.687Z,14.65
2022-12-08T23:13:50.867Z,14.62
2022-12-08T23:18:53.634Z,14.60
2022-12-08T23:23:56.359Z,14.57
2022-12-08T23:29:01.194Z,14.60
2022-12-08T23:34:04.021Z,14.47
2022-12-08T23:39:07.350Z,14.37
2022-12-08T23:44:11.978Z,14.30
2022-12-08T23:49:14.769Z,14.29
2022-12-08T23:54:17.993Z,14.27
2022-12-08T23:59:22.135Z,14.13
